sensor_id;sensor_type;location;lat;lon;timestamp;pressure;altitude;pressure_sealevel;temperature;humidity
57452;BME280;54295;51.224;-0.164;2022-08-11T00:00:04;101588.83;;;23.72;40.66
57452;BME280;54295;51.224;-0.164;2022-08-11T00:02:34;101589.70;;;23.52;40.59
57452;BME280;54295;51.224;-0.164;2022-08-11T00:05:08;101588.52;;;23.37;40.75
57452;BME280;54295;51.224;-0.164;2022-08-11T00:07:43;101586.29;;;23.56;40.90
57452;BME280;54295;51.224;-0.164;2022-08-11T00:10:13;101583.16;;;23.51;41.15
57452;BME280;54295;51.224;-0.164;2022-08-11T00:12:42;101583.82;;;23.23;41.47
57452;BME280;54295;51.224;-0.164;2022-08-11T00:15:11;101582.81;;;22.96;41.30
57452;BME280;54295;51.224;-0.164;2022-08-11T00:17:38;101578.12;;;23.33;41.65
57452;BME280;54295;51.224;-0.164;2022-08-11T00:20:09;101579.28;;;23.39;41.51
57452;BME280;54295;51.224;-0.164;2022-08-11T00:22:38;101577.15;;;23.12;42.21
57452;BME280;54295;51.224;-0.164;2022-08-11T00:25:08;101576.42;;;23.41;41.60
57452;BME280;54295;51.224;-0.164;2022-08-11T00:27:38;101572.92;;;23.19;41.53
57452;BME280;54295;51.224;-0.164;2022-08-11T00:30:08;101573.01;;;23.38;41.71
57452;BME280;54295;51.224;-0.164;2022-08-11T00:32:38;101571.06;;;23.35;41.51
57452;BME280;54295;51.224;-0.164;2022-08-11T00:35:10;101571.72;;;23.31;41.73
57452;BME280;54295;51.224;-0.164;2022-08-11T00:37:38;101570.39;;;23.04;41.61
57452;BME280;54295;51.224;-0.164;2022-08-11T00:40:14;101570.82;;;23.19;41.59
57452;BME280;54295;51.224;-0.164;2022-08-11T00:42:57;101569.54;;;22.78;42.36
57452;BME280;54295;51.224;-0.164;2022-08-11T00:45:31;101570.59;;;21.49;44.24
57452;BME280;54295;51.224;-0.164;2022-08-11T00:48:06;101567.31;;;21.65;45.05
57452;BME280;54295;51.224;-0.164;2022-08-11T00:50:45;101559.80;;;22.41;43.66
57452;BME280;54295;51.224;-0.164;2022-08-11T00:53:29;101559.19;;;22.04;44.01
57452;BME280;54295;51.224;-0.164;2022-08-11T00:56:22;101562.85;;;21.25;44.73
57452;BME280;54295;51.224;-0.164;2022-08-11T00:59:33;101563.60;;;21.51;45.20
57452;BME280;54295;51.224;-0.164;2022-08-11T01:02:13;101558.39;;;21.87;44.78
57452;BME280;54295;51.224;-0.164;2022-08-11T01:05:33;101557.14;;;22.38;43.21
57452;BME280;54295;51.224;-0.164;2022-08-11T01:09:19;101557.34;;;23.17;42.64
57452;BME280;54295;51.224;-0.164;2022-08-11T01:12:19;101554.37;;;22.82;42.19
57452;BME280;54295;51.224;-0.164;2022-08-11T01:15:14;101548.18;;;22.88;42.09
57452;BME280;54295;51.224;-0.164;2022-08-11T01:18:14;101546.82;;;22.77;42.52
57452;BME280;54295;51.224;-0.164;2022-08-11T01:21:06;101545.02;;;22.99;42.04
57452;BME280;54295;51.224;-0.164;2022-08-11T01:25:14;101544.12;;;22.85;42.01
57452;BME280;54295;51.224;-0.164;2022-08-11T01:28:19;101539.97;;;23.19;42.22
57452;BME280;54295;51.224;-0.164;2022-08-11T01:31:09;101541.12;;;22.78;42.01
57452;BME280;54295;51.224;-0.164;2022-08-11T01:38:43;101535.58;;;22.41;44.43
57452;BME280;54295;51.224;-0.164;2022-08-11T01:41:35;101540.93;;;21.26;45.93
57452;BME280;54295;51.224;-0.164;2022-08-11T01:44:21;101539.72;;;22.02;45.09
57452;BME280;54295;51.224;-0.164;2022-08-11T01:47:12;101538.59;;;21.09;46.56
57452;BME280;54295;51.224;-0.164;2022-08-11T01:49:45;101540.69;;;19.33;50.18
57452;BME280;54295;51.224;-0.164;2022-08-11T01:52:25;101538.93;;;20.68;48.44
57452;BME280;54295;51.224;-0.164;2022-08-11T01:55:01;101541.64;;;21.84;45.72
57452;BME280;54295;51.224;-0.164;2022-08-11T01:57:36;101539.22;;;22.04;45.76
57452;BME280;54295;51.224;-0.164;2022-08-11T02:00:14;101537.27;;;22.01;45.42
57452;BME280;54295;51.224;-0.164;2022-08-11T02:02:48;101537.10;;;21.59;46.62
57452;BME280;54295;51.224;-0.164;2022-08-11T02:05:28;101536.26;;;22.37;45.22
57452;BME280;54295;51.224;-0.164;2022-08-11T02:08:09;101538.40;;;22.53;44.47
57452;BME280;54295;51.224;-0.164;2022-08-11T02:10:43;101540.31;;;22.36;44.67
57452;BME280;54295;51.224;-0.164;2022-08-11T02:13:17;101538.50;;;21.77;46.37
57452;BME280;54295;51.224;-0.164;2022-08-11T02:15:51;101536.98;;;21.53;46.82
57452;BME280;54295;51.224;-0.164;2022-08-11T02:18:23;101534.31;;;21.83;46.70
57452;BME280;54295;51.224;-0.164;2022-08-11T02:20:57;101532.95;;;21.96;46.61
57452;BME280;54295;51.224;-0.164;2022-08-11T02:23:30;101535.28;;;20.38;50.12
57452;BME280;54295;51.224;-0.164;2022-08-11T02:26:02;101534.45;;;18.79;53.33
57452;BME280;54295;51.224;-0.164;2022-08-11T02:28:47;101534.00;;;18.68;54.12
57452;BME280;54295;51.224;-0.164;2022-08-11T02:31:23;101527.94;;;19.99;51.63
57452;BME280;54295;51.224;-0.164;2022-08-11T02:33:58;101525.55;;;21.20;48.69
57452;BME280;54295;51.224;-0.164;2022-08-11T02:36:37;101520.69;;;21.63;47.45
57452;BME280;54295;51.224;-0.164;2022-08-11T02:39:12;101520.69;;;21.81;46.03
57452;BME280;54295;51.224;-0.164;2022-08-11T02:41:50;101519.96;;;21.81;45.07
57452;BME280;54295;51.224;-0.164;2022-08-11T02:44:26;101517.54;;;22.05;44.34
57452;BME280;54295;51.224;-0.164;2022-08-11T02:47:05;101519.08;;;22.24;43.74
57452;BME280;54295;51.224;-0.164;2022-08-11T02:49:43;101515.99;;;22.21;43.64
57452;BME280;54295;51.224;-0.164;2022-08-11T02:52:19;101516.21;;;21.60;44.19
57452;BME280;54295;51.224;-0.164;2022-08-11T02:54:56;101515.35;;;21.80;45.90
57452;BME280;54295;51.224;-0.164;2022-08-11T02:57:34;101515.66;;;22.10;45.40
57452;BME280;54295;51.224;-0.164;2022-08-11T03:00:07;101515.95;;;21.27;47.93
57452;BME280;54295;51.224;-0.164;2022-08-11T03:02:52;101510.96;;;20.67;49.38
57452;BME280;54295;51.224;-0.164;2022-08-11T03:05:29;101503.36;;;21.55;47.69
57452;BME280;54295;51.224;-0.164;2022-08-11T03:08:10;101500.81;;;21.71;47.59
57452;BME280;54295;51.224;-0.164;2022-08-11T03:10:46;101500.45;;;21.96;47.00
57452;BME280;54295;51.224;-0.164;2022-08-11T03:13:20;101497.18;;;21.79;46.73
57452;BME280;54295;51.224;-0.164;2022-08-11T03:15:56;101499.42;;;22.10;44.75
57452;BME280;54295;51.224;-0.164;2022-08-11T03:18:40;101499.09;;;22.02;43.89
57452;BME280;54295;51.224;-0.164;2022-08-11T03:21:19;101502.04;;;22.01;44.00
57452;BME280;54295;51.224;-0.164;2022-08-11T03:23:52;101501.22;;;21.88;44.25
57452;BME280;54295;51.224;-0.164;2022-08-11T03:26:27;101502.59;;;20.02;50.35
57452;BME280;54295;51.224;-0.164;2022-08-11T03:29:05;101505.59;;;18.73;53.66
57452;BME280;54295;51.224;-0.164;2022-08-11T03:31:40;101504.69;;;21.01;49.45
57452;BME280;54295;51.224;-0.164;2022-08-11T03:34:15;101502.62;;;20.57;49.96
57452;BME280;54295;51.224;-0.164;2022-08-11T03:36:58;101502.35;;;21.06;49.52
57452;BME280;54295;51.224;-0.164;2022-08-11T03:39:43;101500.88;;;21.22;48.48
57452;BME280;54295;51.224;-0.164;2022-08-11T03:42:18;101496.40;;;21.60;47.73
57452;BME280;54295;51.224;-0.164;2022-08-11T03:45:02;101496.46;;;21.52;47.08
57452;BME280;54295;51.224;-0.164;2022-08-11T03:47:42;101495.96;;;21.39;47.24
57452;BME280;54295;51.224;-0.164;2022-08-11T03:50:23;101494.15;;;19.67;52.24
57452;BME280;54295;51.224;-0.164;2022-08-11T03:53:12;101492.92;;;20.83;50.24
57452;BME280;54295;51.224;-0.164;2022-08-11T03:56:10;101488.39;;;20.36;51.20
57452;BME280;54295;51.224;-0.164;2022-08-11T03:59:00;101489.23;;;20.85;50.44
57452;BME280;54295;51.224;-0.164;2022-08-11T04:01:56;101489.73;;;19.67;53.08
57452;BME280;54295;51.224;-0.164;2022-08-11T04:04:59;101485.81;;;20.61;51.59
57452;BME280;54295;51.224;-0.164;2022-08-11T04:07:46;101489.12;;;21.54;50.06
57452;BME280;54295;51.224;-0.164;2022-08-11T04:10:57;101489.32;;;21.49;49.70
57452;BME280;54295;51.224;-0.164;2022-08-11T04:13:53;101489.14;;;19.30;54.21
57452;BME280;54295;51.224;-0.164;2022-08-11T04:16:40;101487.70;;;19.69;53.80
57452;BME280;54295;51.224;-0.164;2022-08-11T04:20:28;101488.88;;;19.55;54.08
57452;BME280;54295;51.224;-0.164;2022-08-11T04:23:23;101486.15;;;20.68;52.00
57452;BME280;54295;51.224;-0.164;2022-08-11T04:26:24;101486.73;;;20.76;51.54
57452;BME280;54295;51.224;-0.164;2022-08-11T04:29:05;101484.54;;;20.06;53.09
57452;BME280;54295;51.224;-0.164;2022-08-11T04:31:37;101491.73;;;18.20;57.30
57452;BME280;54295;51.224;-0.164;2022-08-11T04:34:36;101489.02;;;19.90;54.61
57452;BME280;54295;51.224;-0.164;2022-08-11T04:37:16;101481.59;;;16.93;60.76
57452;BME280;54295;51.224;-0.164;2022-08-11T04:40:05;101483.23;;;16.70;60.62
57452;BME280;54295;51.224;-0.164;2022-08-11T04:43:17;101483.60;;;15.73;65.35
57452;BME280;54295;51.224;-0.164;2022-08-11T04:46:03;101482.45;;;16.27;64.83
57452;BME280;54295;51.224;-0.164;2022-08-11T04:48:51;101478.51;;;16.30;64.39
57452;BME280;54295;51.224;-0.164;2022-08-11T04:51:35;101482.17;;;18.18;58.67
57452;BME280;54295;51.224;-0.164;2022-08-11T04:54:22;101481.60;;;19.60;55.36
57452;BME280;54295;51.224;-0.164;2022-08-11T04:57:01;101478.65;;;18.69;56.85
57452;BME280;54295;51.224;-0.164;2022-08-11T05:00:05;101473.61;;;17.30;61.52
57452;BME280;54295;51.224;-0.164;2022-08-11T05:03:49;101477.34;;;15.85;63.72
57452;BME280;54295;51.224;-0.164;2022-08-11T05:06:38;101476.15;;;16.56;62.94
57452;BME280;54295;51.224;-0.164;2022-08-11T05:09:27;101477.13;;;16.79;61.68
57452;BME280;54295;51.224;-0.164;2022-08-11T05:12:40;101477.96;;;17.67;60.66
57452;BME280;54295;51.224;-0.164;2022-08-11T05:15:11;101476.42;;;16.99;61.53
57452;BME280;54295;51.224;-0.164;2022-08-11T05:17:43;101480.79;;;16.40;62.21
57452;BME280;54295;51.224;-0.164;2022-08-11T05:20:11;101480.53;;;17.96;59.08
57452;BME280;54295;51.224;-0.164;2022-08-11T05:22:43;101481.93;;;18.53;58.22
57452;BME280;54295;51.224;-0.164;2022-08-11T05:25:16;101482.04;;;17.29;60.87
57452;BME280;54295;51.224;-0.164;2022-08-11T05:27:51;101480.20;;;16.11;63.91
57452;BME280;54295;51.224;-0.164;2022-08-11T05:30:25;101483.84;;;17.34;60.77
57452;BME280;54295;51.224;-0.164;2022-08-11T05:32:58;101485.59;;;17.68;60.54
57452;BME280;54295;51.224;-0.164;2022-08-11T05:35:30;101486.18;;;16.96;61.17
57452;BME280;54295;51.224;-0.164;2022-08-11T05:37:58;101485.39;;;17.62;60.40
57452;BME280;54295;51.224;-0.164;2022-08-11T05:40:26;101486.78;;;17.13;60.97
57452;BME280;54295;51.224;-0.164;2022-08-11T05:42:57;101492.08;;;17.89;59.61
57452;BME280;54295;51.224;-0.164;2022-08-11T05:45:24;101491.48;;;17.89;59.26
57452;BME280;54295;51.224;-0.164;2022-08-11T05:47:53;101497.41;;;18.85;57.49
57452;BME280;54295;51.224;-0.164;2022-08-11T05:50:22;101494.86;;;19.92;54.33
57452;BME280;54295;51.224;-0.164;2022-08-11T05:52:49;101498.55;;;17.17;60.04
57452;BME280;54295;51.224;-0.164;2022-08-11T05:55:19;101497.77;;;18.26;58.22
57452;BME280;54295;51.224;-0.164;2022-08-11T05:57:48;101496.02;;;19.35;57.01
57452;BME280;54295;51.224;-0.164;2022-08-11T06:00:20;101498.97;;;18.62;57.34
57452;BME280;54295;51.224;-0.164;2022-08-11T06:02:50;101496.25;;;19.79;54.86
57452;BME280;54295;51.224;-0.164;2022-08-11T06:05:18;101493.39;;;20.08;54.44
57452;BME280;54295;51.224;-0.164;2022-08-11T06:07:45;101495.71;;;17.67;59.04
57452;BME280;54295;51.224;-0.164;2022-08-11T06:10:13;101497.17;;;18.54;57.81
57452;BME280;54295;51.224;-0.164;2022-08-11T06:12:52;101495.93;;;18.94;57.18
57452;BME280;54295;51.224;-0.164;2022-08-11T06:15:20;101496.55;;;19.78;55.36
57452;BME280;54295;51.224;-0.164;2022-08-11T06:17:48;101499.77;;;18.60;57.84
57452;BME280;54295;51.224;-0.164;2022-08-11T06:20:17;101496.87;;;20.52;54.14
57452;BME280;54295;51.224;-0.164;2022-08-11T06:22:49;101494.53;;;19.98;54.73
57452;BME280;54295;51.224;-0.164;2022-08-11T06:25:21;101493.70;;;20.81;53.17
57452;BME280;54295;51.224;-0.164;2022-08-11T06:27:54;101497.68;;;18.92;56.98
57452;BME280;54295;51.224;-0.164;2022-08-11T06:30:32;101498.43;;;18.27;59.14
57452;BME280;54295;51.224;-0.164;2022-08-11T06:33:01;101498.97;;;18.99;57.40
57452;BME280;54295;51.224;-0.164;2022-08-11T06:35:37;101496.47;;;20.53;54.24
57452;BME280;54295;51.224;-0.164;2022-08-11T06:38:08;101495.43;;;20.14;54.53
57452;BME280;54295;51.224;-0.164;2022-08-11T06:40:42;101490.86;;;21.45;52.03
57452;BME280;54295;51.224;-0.164;2022-08-11T06:43:18;101490.74;;;21.13;52.29
57452;BME280;54295;51.224;-0.164;2022-08-11T06:45:52;101487.14;;;21.74;51.05
57452;BME280;54295;51.224;-0.164;2022-08-11T06:48:23;101486.08;;;19.61;55.60
57452;BME280;54295;51.224;-0.164;2022-08-11T06:50:52;101481.52;;;21.53;51.06
57452;BME280;54295;51.224;-0.164;2022-08-11T06:53:21;101480.50;;;19.39;55.49
57452;BME280;54295;51.224;-0.164;2022-08-11T06:55:49;101483.50;;;21.39;52.53
57452;BME280;54295;51.224;-0.164;2022-08-11T06:58:19;101486.43;;;22.76;49.79
57452;BME280;54295;51.224;-0.164;2022-08-11T07:00:48;101484.60;;;21.79;50.83
57452;BME280;54295;51.224;-0.164;2022-08-11T07:03:21;101487.25;;;22.87;49.13
57452;BME280;54295;51.224;-0.164;2022-08-11T07:05:54;101491.83;;;20.41;53.06
57452;BME280;54295;51.224;-0.164;2022-08-11T07:08:57;101489.77;;;20.23;54.86
57452;BME280;54295;51.224;-0.164;2022-08-11T07:11:56;101493.89;;;20.92;53.94
57452;BME280;54295;51.224;-0.164;2022-08-11T07:14:27;101491.66;;;21.14;52.43
57452;BME280;54295;51.224;-0.164;2022-08-11T07:16:57;101494.55;;;19.28;57.02
57452;BME280;54295;51.224;-0.164;2022-08-11T07:19:28;101493.35;;;19.91;55.79
57452;BME280;54295;51.224;-0.164;2022-08-11T07:21:59;101498.38;;;19.76;56.65
57452;BME280;54295;51.224;-0.164;2022-08-11T07:24:32;101499.20;;;18.34;59.73
57452;BME280;54295;51.224;-0.164;2022-08-11T07:27:04;101497.77;;;21.13;53.79
57452;BME280;54295;51.224;-0.164;2022-08-11T07:29:34;101495.00;;;21.28;52.45
57452;BME280;54295;51.224;-0.164;2022-08-11T07:32:12;101495.80;;;21.93;51.60
57452;BME280;54295;51.224;-0.164;2022-08-11T07:34:45;101497.34;;;22.52;50.20
57452;BME280;54295;51.224;-0.164;2022-08-11T07:37:16;101497.19;;;22.37;50.67
57452;BME280;54295;51.224;-0.164;2022-08-11T07:39:44;101500.15;;;21.17;52.93
57452;BME280;54295;51.224;-0.164;2022-08-11T07:42:14;101498.47;;;22.39;50.82
57452;BME280;54295;51.224;-0.164;2022-08-11T07:44:44;101500.48;;;21.51;52.47
57452;BME280;54295;51.224;-0.164;2022-08-11T07:47:13;101498.08;;;21.95;51.65
57452;BME280;54295;51.224;-0.164;2022-08-11T07:49:44;101496.97;;;21.34;52.34
57452;BME280;54295;51.224;-0.164;2022-08-11T07:52:12;101500.69;;;20.82;53.64
57452;BME280;54295;51.224;-0.164;2022-08-11T07:54:39;101496.84;;;23.09;49.28
57452;BME280;54295;51.224;-0.164;2022-08-11T07:57:08;101500.50;;;23.84;47.76
57452;BME280;54295;51.224;-0.164;2022-08-11T07:59:35;101497.26;;;24.28;46.65
57452;BME280;54295;51.224;-0.164;2022-08-11T08:02:03;101494.18;;;22.57;49.09
57452;BME280;54295;51.224;-0.164;2022-08-11T08:04:30;101497.31;;;21.91;50.70
57452;BME280;54295;51.224;-0.164;2022-08-11T08:07:00;101496.83;;;22.24;50.15
57452;BME280;54295;51.224;-0.164;2022-08-11T08:09:33;101495.66;;;22.41;49.77
57452;BME280;54295;51.224;-0.164;2022-08-11T08:12:03;101497.89;;;22.51;49.13
57452;BME280;54295;51.224;-0.164;2022-08-11T08:14:30;101503.78;;;23.70;47.84
57452;BME280;54295;51.224;-0.164;2022-08-11T08:16:58;101502.25;;;22.01;49.69
57452;BME280;54295;51.224;-0.164;2022-08-11T08:19:26;101503.36;;;23.05;48.22
57452;BME280;54295;51.224;-0.164;2022-08-11T08:21:54;101498.52;;;23.54;47.56
57452;BME280;54295;51.224;-0.164;2022-08-11T08:24:22;101494.29;;;21.56;50.96
57452;BME280;54295;51.224;-0.164;2022-08-11T08:26:49;101496.76;;;23.90;46.54
57452;BME280;54295;51.224;-0.164;2022-08-11T08:29:17;101496.03;;;21.39;50.45
57452;BME280;54295;51.224;-0.164;2022-08-11T08:31:46;101492.74;;;22.59;49.00
57452;BME280;54295;51.224;-0.164;2022-08-11T08:34:15;101488.51;;;22.04;50.04
57452;BME280;54295;51.224;-0.164;2022-08-11T08:36:44;101488.37;;;21.73;50.17
57452;BME280;54295;51.224;-0.164;2022-08-11T08:39:13;101489.24;;;22.96;48.45
57452;BME280;54295;51.224;-0.164;2022-08-11T08:41:42;101490.51;;;23.54;47.06
57452;BME280;54295;51.224;-0.164;2022-08-11T08:44:12;101488.76;;;24.45;45.16
57452;BME280;54295;51.224;-0.164;2022-08-11T08:46:43;101495.94;;;23.93;45.53
57452;BME280;54295;51.224;-0.164;2022-08-11T08:49:15;101496.88;;;23.64;45.33
57452;BME280;54295;51.224;-0.164;2022-08-11T08:51:43;101493.85;;;22.69;46.84
57452;BME280;54295;51.224;-0.164;2022-08-11T08:54:15;101493.20;;;22.81;46.63
57452;BME280;54295;51.224;-0.164;2022-08-11T08:56:44;101487.83;;;24.71;43.63
57452;BME280;54295;51.224;-0.164;2022-08-11T08:59:13;101487.57;;;24.97;43.22
57452;BME280;54295;51.224;-0.164;2022-08-11T09:01:45;101489.85;;;23.57;44.44
57452;BME280;54295;51.224;-0.164;2022-08-11T09:04:14;101486.10;;;23.18;45.17
57452;BME280;54295;51.224;-0.164;2022-08-11T09:06:42;101486.03;;;24.97;41.29
57452;BME280;54295;51.224;-0.164;2022-08-11T09:09:10;101485.37;;;24.91;41.04
57452;BME280;54295;51.224;-0.164;2022-08-11T09:11:40;101481.53;;;24.95;40.25
57452;BME280;54295;51.224;-0.164;2022-08-11T09:14:08;101476.27;;;26.81;38.29
57452;BME280;54295;51.224;-0.164;2022-08-11T09:16:36;101477.60;;;26.28;36.76
57452;BME280;54295;51.224;-0.164;2022-08-11T09:19:05;101477.08;;;25.96;38.36
57452;BME280;54295;51.224;-0.164;2022-08-11T09:21:33;101473.99;;;25.43;37.47
57452;BME280;54295;51.224;-0.164;2022-08-11T09:24:01;101469.36;;;27.04;35.79
57452;BME280;54295;51.224;-0.164;2022-08-11T09:26:28;101466.27;;;26.06;36.93
57452;BME280;54295;51.224;-0.164;2022-08-11T09:28:57;101462.21;;;26.65;35.66
57452;BME280;54295;51.224;-0.164;2022-08-11T09:31:25;101462.92;;;26.76;35.19
57452;BME280;54295;51.224;-0.164;2022-08-11T09:33:53;101464.84;;;26.75;35.03
57452;BME280;54295;51.224;-0.164;2022-08-11T09:36:21;101463.46;;;27.04;34.32
57452;BME280;54295;51.224;-0.164;2022-08-11T09:38:50;101461.33;;;25.24;35.45
57452;BME280;54295;51.224;-0.164;2022-08-11T09:41:18;101457.20;;;26.83;33.71
57452;BME280;54295;51.224;-0.164;2022-08-11T09:43:46;101456.70;;;27.21;32.66
57452;BME280;54295;51.224;-0.164;2022-08-11T09:46:14;101456.00;;;26.84;32.52
57452;BME280;54295;51.224;-0.164;2022-08-11T09:48:43;101460.29;;;26.94;32.54
57452;BME280;54295;51.224;-0.164;2022-08-11T09:51:12;101458.67;;;27.79;31.78
57452;BME280;54295;51.224;-0.164;2022-08-11T09:53:41;101453.35;;;25.87;34.16
57452;BME280;54295;51.224;-0.164;2022-08-11T09:56:11;101451.82;;;25.65;34.16
57452;BME280;54295;51.224;-0.164;2022-08-11T09:58:43;101447.09;;;25.74;33.27
57452;BME280;54295;51.224;-0.164;2022-08-11T10:01:21;101449.71;;;26.91;31.83
57452;BME280;54295;51.224;-0.164;2022-08-11T10:03:48;101446.51;;;26.80;31.57
57452;BME280;54295;51.224;-0.164;2022-08-11T10:06:17;101438.45;;;28.10;30.41
57452;BME280;54295;51.224;-0.164;2022-08-11T10:08:45;101438.26;;;27.35;31.43
57452;BME280;54295;51.224;-0.164;2022-08-11T10:11:15;101434.18;;;26.64;32.17
57452;BME280;54295;51.224;-0.164;2022-08-11T10:13:45;101439.64;;;27.85;30.75
57452;BME280;54295;51.224;-0.164;2022-08-11T10:16:12;101436.78;;;27.32;31.34
57452;BME280;54295;51.224;-0.164;2022-08-11T10:18:41;101432.75;;;27.83;30.36
57452;BME280;54295;51.224;-0.164;2022-08-11T10:21:11;101437.60;;;28.38;30.00
57452;BME280;54295;51.224;-0.164;2022-08-11T10:23:41;101441.97;;;27.00;31.01
57452;BME280;54295;51.224;-0.164;2022-08-11T10:26:10;101439.76;;;28.23;30.04
57452;BME280;54295;51.224;-0.164;2022-08-11T10:28:38;101436.79;;;28.59;27.75
57452;BME280;54295;51.224;-0.164;2022-08-11T10:31:06;101429.16;;;28.46;26.86
57452;BME280;54295;51.224;-0.164;2022-08-11T10:33:34;101427.96;;;28.94;28.39
57452;BME280;54295;51.224;-0.164;2022-08-11T10:36:04;101429.83;;;29.28;28.42
57452;BME280;54295;51.224;-0.164;2022-08-11T10:38:34;101430.39;;;28.96;27.40
57452;BME280;54295;51.224;-0.164;2022-08-11T10:41:02;101429.45;;;28.49;27.20
57452;BME280;54295;51.224;-0.164;2022-08-11T10:43:30;101429.93;;;28.54;27.29
57452;BME280;54295;51.224;-0.164;2022-08-11T10:45:58;101428.77;;;27.80;28.26
57452;BME280;54295;51.224;-0.164;2022-08-11T10:48:27;101420.99;;;28.96;27.21
57452;BME280;54295;51.224;-0.164;2022-08-11T10:50:55;101423.77;;;28.34;27.98
57452;BME280;54295;51.224;-0.164;2022-08-11T10:53:23;101424.38;;;27.75;28.52
57452;BME280;54295;51.224;-0.164;2022-08-11T10:55:51;101418.87;;;29.00;26.73
57452;BME280;54295;51.224;-0.164;2022-08-11T10:58:19;101422.96;;;30.01;26.15
57452;BME280;54295;51.224;-0.164;2022-08-11T11:00:47;101433.80;;;28.78;27.04
57452;BME280;54295;51.224;-0.164;2022-08-11T11:03:15;101422.53;;;29.35;26.54
57452;BME280;54295;51.224;-0.164;2022-08-11T11:05:44;101429.56;;;28.24;26.51
57452;BME280;54295;51.224;-0.164;2022-08-11T11:08:16;101426.02;;;28.43;26.27
57452;BME280;54295;51.224;-0.164;2022-08-11T11:10:46;101416.99;;;29.20;26.27
57452;BME280;54295;51.224;-0.164;2022-08-11T11:13:14;101416.27;;;29.27;26.75
57452;BME280;54295;51.224;-0.164;2022-08-11T11:15:44;101420.39;;;29.33;26.24
57452;BME280;54295;51.224;-0.164;2022-08-11T11:18:18;101422.48;;;29.45;25.82
57452;BME280;54295;51.224;-0.164;2022-08-11T11:20:48;101415.86;;;28.83;26.58
57452;BME280;54295;51.224;-0.164;2022-08-11T11:23:19;101409.57;;;29.43;25.99
57452;BME280;54295;51.224;-0.164;2022-08-11T11:26:00;101416.43;;;29.54;25.16
57452;BME280;54295;51.224;-0.164;2022-08-11T11:29:47;101412.66;;;28.81;25.60
57452;BME280;54295;51.224;-0.164;2022-08-11T11:32:23;101409.18;;;29.00;25.02
57452;BME280;54295;51.224;-0.164;2022-08-11T11:35:03;101408.58;;;28.92;25.25
57452;BME280;54295;51.224;-0.164;2022-08-11T11:37:36;101411.64;;;28.94;25.77
57452;BME280;54295;51.224;-0.164;2022-08-11T11:40:08;101409.60;;;29.37;25.80
57452;BME280;54295;51.224;-0.164;2022-08-11T11:42:36;101406.23;;;28.89;25.89
57452;BME280;54295;51.224;-0.164;2022-08-11T11:45:06;101404.39;;;28.77;26.41
57452;BME280;54295;51.224;-0.164;2022-08-11T11:47:34;101403.46;;;28.48;27.02
57452;BME280;54295;51.224;-0.164;2022-08-11T11:50:03;101406.39;;;29.51;26.15
57452;BME280;54295;51.224;-0.164;2022-08-11T11:52:31;101401.83;;;29.08;26.08
57452;BME280;54295;51.224;-0.164;2022-08-11T11:54:59;101396.71;;;30.70;24.99
57452;BME280;54295;51.224;-0.164;2022-08-11T11:57:28;101402.06;;;29.46;24.73
57452;BME280;54295;51.224;-0.164;2022-08-11T11:59:56;101398.83;;;29.29;24.83
57452;BME280;54295;51.224;-0.164;2022-08-11T12:02:24;101398.10;;;29.55;24.80
57452;BME280;54295;51.224;-0.164;2022-08-11T12:04:50;101393.81;;;30.27;24.87
57452;BME280;54295;51.224;-0.164;2022-08-11T12:07:19;101388.38;;;29.53;25.45
57452;BME280;54295;51.224;-0.164;2022-08-11T12:09:47;101391.36;;;30.90;24.30
57452;BME280;54295;51.224;-0.164;2022-08-11T12:12:14;101385.19;;;30.56;25.14
57452;BME280;54295;51.224;-0.164;2022-08-11T12:14:42;101383.17;;;30.65;25.15
57452;BME280;54295;51.224;-0.164;2022-08-11T12:17:09;101377.62;;;31.60;24.84
57452;BME280;54295;51.224;-0.164;2022-08-11T12:19:37;101379.77;;;30.29;25.13
57452;BME280;54295;51.224;-0.164;2022-08-11T12:22:05;101363.08;;;30.54;25.04
57452;BME280;54295;51.224;-0.164;2022-08-11T12:24:34;101373.70;;;30.84;25.15
57452;BME280;54295;51.224;-0.164;2022-08-11T12:27:03;101365.74;;;30.83;24.18
57452;BME280;54295;51.224;-0.164;2022-08-11T12:29:30;101362.41;;;29.79;25.43
57452;BME280;54295;51.224;-0.164;2022-08-11T12:31:58;101362.51;;;30.30;24.89
57452;BME280;54295;51.224;-0.164;2022-08-11T12:34:26;101346.86;;;30.13;25.11
57452;BME280;54295;51.224;-0.164;2022-08-11T12:36:57;101351.67;;;30.31;25.07
57452;BME280;54295;51.224;-0.164;2022-08-11T12:39:26;101356.68;;;29.52;25.38
57452;BME280;54295;51.224;-0.164;2022-08-11T12:41:54;101353.72;;;30.56;24.69
57452;BME280;54295;51.224;-0.164;2022-08-11T12:44:24;101350.08;;;30.44;24.70
57452;BME280;54295;51.224;-0.164;2022-08-11T12:46:53;101349.17;;;31.32;24.25
57452;BME280;54295;51.224;-0.164;2022-08-11T12:49:25;101345.83;;;31.40;22.94
57452;BME280;54295;51.224;-0.164;2022-08-11T12:51:54;101339.47;;;30.98;23.07
57452;BME280;54295;51.224;-0.164;2022-08-11T12:54:26;101344.77;;;30.31;23.72
57452;BME280;54295;51.224;-0.164;2022-08-11T12:56:58;101340.41;;;30.92;23.02
57452;BME280;54295;51.224;-0.164;2022-08-11T12:59:26;101336.64;;;31.02;22.41
57452;BME280;54295;51.224;-0.164;2022-08-11T13:01:54;101330.62;;;30.41;22.37
57452;BME280;54295;51.224;-0.164;2022-08-11T13:04:21;101330.32;;;30.00;22.27
57452;BME280;54295;51.224;-0.164;2022-08-11T13:06:49;101325.17;;;30.10;22.30
57452;BME280;54295;51.224;-0.164;2022-08-11T13:09:17;101325.31;;;31.20;21.73
57452;BME280;54295;51.224;-0.164;2022-08-11T13:11:46;101323.82;;;30.80;22.10
57452;BME280;54295;51.224;-0.164;2022-08-11T13:14:14;101323.46;;;29.46;23.02
57452;BME280;54295;51.224;-0.164;2022-08-11T13:16:43;101313.32;;;29.83;22.58
57452;BME280;54295;51.224;-0.164;2022-08-11T13:19:12;101319.00;;;29.89;21.84
57452;BME280;54295;51.224;-0.164;2022-08-11T13:21:39;101316.28;;;29.95;21.69
57452;BME280;54295;51.224;-0.164;2022-08-11T13:24:07;101313.90;;;30.70;21.53
57452;BME280;54295;51.224;-0.164;2022-08-11T13:26:36;101318.87;;;31.13;21.30